sensor_id;sensor_type;location;lat;lon;timestamp;P1;durP1;ratioP1;P2;durP2;ratioP2
18789;SDS011;9523;42.650;23.386;2024-03-17T00:01:02;19.67;;;12.33;;
18789;SDS011;9523;42.650;23.386;2024-03-17T00:03:29;22.40;;;12.27;;
18789;SDS011;9523;42.650;23.386;2024-03-17T00:05:56;21.47;;;11.77;;
18789;SDS011;9523;42.650;23.386;2024-03-17T00:08:25;19.33;;;11.57;;
18789;SDS011;9523;42.650;23.386;2024-03-17T00:10:51;25.20;;;14.70;;
18789;SDS011;9523;42.650;23.386;2024-03-17T00:13:18;19.33;;;12.13;;
18789;SDS011;9523;42.650;23.386;2024-03-17T00:15:44;19.10;;;10.93;;
18789;SDS011;9523;42.650;23.386;2024-03-17T00:18:12;25.50;;;14.37;;
18789;SDS011;9523;42.650;23.386;2024-03-17T00:20:39;27.00;;;15.00;;
18789;SDS011;9523;42.650;23.386;2024-03-17T00:23:07;28.47;;;16.37;;
18789;SDS011;9523;42.650;23.386;2024-03-17T00:25:35;26.40;;;14.53;;
18789;SDS011;9523;42.650;23.386;2024-03-17T00:28:03;30.47;;;17.07;;
18789;SDS011;9523;42.650;23.386;2024-03-17T00:30:29;34.80;;;18.17;;
18789;SDS011;9523;42.650;23.386;2024-03-17T00:32:57;34.97;;;18.40;;
18789;SDS011;9523;42.650;23.386;2024-03-17T00:35:23;39.70;;;19.80;;
18789;SDS011;9523;42.650;23.386;2024-03-17T00:37:50;34.80;;;19.07;;
18789;SDS011;9523;42.650;23.386;2024-03-17T00:40:17;34.87;;;19.33;;
18789;SDS011;9523;42.650;23.386;2024-03-17T00:42:45;34.40;;;20.03;;
18789;SDS011;9523;42.650;23.386;2024-03-17T00:45:12;35.97;;;19.77;;
18789;SDS011;9523;42.650;23.386;2024-03-17T00:47:39;36.97;;;19.97;;
18789;SDS011;9523;42.650;23.386;2024-03-17T00:50:05;35.33;;;20.53;;
18789;SDS011;9523;42.650;23.386;2024-03-17T00:52:33;34.33;;;19.43;;
18789;SDS011;9523;42.650;23.386;2024-03-17T00:54:59;39.50;;;21.73;;
18789;SDS011;9523;42.650;23.386;2024-03-17T00:57:27;36.93;;;21.13;;
18789;SDS011;9523;42.650;23.386;2024-03-17T00:59:54;37.23;;;21.63;;
18789;SDS011;9523;42.650;23.386;2024-03-17T01:02:21;38.30;;;21.07;;
18789;SDS011;9523;42.650;23.386;2024-03-17T01:04:47;34.27;;;20.63;;
18789;SDS011;9523;42.650;23.386;2024-03-17T01:07:14;33.90;;;20.37;;
18789;SDS011;9523;42.650;23.386;2024-03-17T01:09:41;37.20;;;20.77;;
18789;SDS011;9523;42.650;23.386;2024-03-17T01:12:07;37.00;;;20.47;;
18789;SDS011;9523;42.650;23.386;2024-03-17T01:14:35;33.23;;;20.10;;
18789;SDS011;9523;42.650;23.386;2024-03-17T01:17:02;37.07;;;21.83;;
18789;SDS011;9523;42.650;23.386;2024-03-17T01:19:31;32.53;;;19.73;;
18789;SDS011;9523;42.650;23.386;2024-03-17T01:21:57;33.43;;;19.73;;
18789;SDS011;9523;42.650;23.386;2024-03-17T01:24:24;31.70;;;20.43;;
18789;SDS011;9523;42.650;23.386;2024-03-17T01:26:50;36.20;;;20.97;;
18789;SDS011;9523;42.650;23.386;2024-03-17T01:29:18;39.70;;;21.10;;
18789;SDS011;9523;42.650;23.386;2024-03-17T01:31:44;37.33;;;20.73;;
18789;SDS011;9523;42.650;23.386;2024-03-17T01:34:12;38.03;;;22.17;;
18789;SDS011;9523;42.650;23.386;2024-03-17T01:36:38;29.10;;;16.97;;
18789;SDS011;9523;42.650;23.386;2024-03-17T01:39:05;35.57;;;18.47;;
18789;SDS011;9523;42.650;23.386;2024-03-17T01:41:32;33.53;;;17.60;;
18789;SDS011;9523;42.650;23.386;2024-03-17T01:43:59;30.00;;;16.43;;
18789;SDS011;9523;42.650;23.386;2024-03-17T01:46:25;35.23;;;18.47;;
18789;SDS011;9523;42.650;23.386;2024-03-17T01:48:52;34.87;;;16.77;;
18789;SDS011;9523;42.650;23.386;2024-03-17T01:51:21;33.43;;;16.13;;
18789;SDS011;9523;42.650;23.386;2024-03-17T01:53:49;22.43;;;11.00;;
18789;SDS011;9523;42.650;23.386;2024-03-17T01:56:16;18.53;;;10.80;;
18789;SDS011;9523;42.650;23.386;2024-03-17T01:58:42;18.90;;;10.33;;
18789;SDS011;9523;42.650;23.386;2024-03-17T02:01:10;16.97;;;8.87;;
18789;SDS011;9523;42.650;23.386;2024-03-17T02:03:39;14.80;;;9.27;;
18789;SDS011;9523;42.650;23.386;2024-03-17T02:06:07;7.90;;;5.27;;
18789;SDS011;9523;42.650;23.386;2024-03-17T02:08:47;8.03;;;4.80;;
18789;SDS011;9523;42.650;23.386;2024-03-17T02:11:23;9.57;;;5.20;;
18789;SDS011;9523;42.650;23.386;2024-03-17T02:13:51;8.27;;;5.30;;
18789;SDS011;9523;42.650;23.386;2024-03-17T02:16:18;7.77;;;4.67;;
18789;SDS011;9523;42.650;23.386;2024-03-17T02:18:45;9.27;;;4.73;;
18789;SDS011;9523;42.650;23.386;2024-03-17T02:21:12;9.50;;;4.83;;
18789;SDS011;9523;42.650;23.386;2024-03-17T02:23:39;4.87;;;3.53;;
18789;SDS011;9523;42.650;23.386;2024-03-17T02:26:07;4.57;;;4.17;;
18789;SDS011;9523;42.650;23.386;2024-03-17T02:28:43;6.43;;;4.07;;
18789;SDS011;9523;42.650;23.386;2024-03-17T02:31:11;2.73;;;2.40;;
18789;SDS011;9523;42.650;23.386;2024-03-17T02:33:38;7.27;;;3.37;;
18789;SDS011;9523;42.650;23.386;2024-03-17T02:36:05;1.90;;;1.80;;
18789;SDS011;9523;42.650;23.386;2024-03-17T02:38:32;2.53;;;1.77;;
18789;SDS011;9523;42.650;23.386;2024-03-17T02:41:18;5.80;;;2.43;;
18789;SDS011;9523;42.650;23.386;2024-03-17T02:43:45;1.83;;;1.73;;
18789;SDS011;9523;42.650;23.386;2024-03-17T02:46:13;0.93;;;0.83;;
18789;SDS011;9523;42.650;23.386;2024-03-17T02:48:41;3.77;;;2.77;;
18789;SDS011;9523;42.650;23.386;2024-03-17T02:51:10;3.13;;;1.70;;
18789;SDS011;9523;42.650;23.386;2024-03-17T02:53:40;2.03;;;1.67;;
18789;SDS011;9523;42.650;23.386;2024-03-17T02:56:07;1.83;;;1.70;;
18789;SDS011;9523;42.650;23.386;2024-03-17T02:58:35;3.10;;;2.13;;
18789;SDS011;9523;42.650;23.386;2024-03-17T03:01:03;1.60;;;1.50;;
18789;SDS011;9523;42.650;23.386;2024-03-17T03:03:31;8.70;;;2.27;;
18789;SDS011;9523;42.650;23.386;2024-03-17T03:05:58;2.67;;;1.70;;
18789;SDS011;9523;42.650;23.386;2024-03-17T03:08:29;2.77;;;1.53;;
18789;SDS011;9523;42.650;23.386;2024-03-17T03:10:56;1.83;;;1.73;;
18789;SDS011;9523;42.650;23.386;2024-03-17T03:13:23;1.17;;;1.03;;
18789;SDS011;9523;42.650;23.386;2024-03-17T03:15:51;3.37;;;2.80;;
18789;SDS011;9523;42.650;23.386;2024-03-17T03:18:19;2.90;;;2.10;;
18789;SDS011;9523;42.650;23.386;2024-03-17T03:20:50;1.60;;;1.53;;
18789;SDS011;9523;42.650;23.386;2024-03-17T03:23:18;0.97;;;0.97;;
18789;SDS011;9523;42.650;23.386;2024-03-17T03:25:45;4.07;;;1.57;;
18789;SDS011;9523;42.650;23.386;2024-03-17T03:28:12;3.80;;;1.57;;
18789;SDS011;9523;42.650;23.386;2024-03-17T03:30:39;1.60;;;1.50;;
18789;SDS011;9523;42.650;23.386;2024-03-17T03:33:08;3.30;;;1.63;;
18789;SDS011;9523;42.650;23.386;2024-03-17T03:35:35;2.77;;;0.97;;
18789;SDS011;9523;42.650;23.386;2024-03-17T03:38:02;2.97;;;2.53;;
18789;SDS011;9523;42.650;23.386;2024-03-17T03:40:29;2.57;;;1.83;;
18789;SDS011;9523;42.650;23.386;2024-03-17T03:42:58;1.93;;;1.73;;
18789;SDS011;9523;42.650;23.386;2024-03-17T03:45:25;0.80;;;0.80;;
18789;SDS011;9523;42.650;23.386;2024-03-17T03:47:52;5.10;;;2.00;;
18789;SDS011;9523;42.650;23.386;2024-03-17T03:50:21;2.53;;;1.83;;
18789;SDS011;9523;42.650;23.386;2024-03-17T03:52:49;3.27;;;2.97;;
18789;SDS011;9523;42.650;23.386;2024-03-17T03:55:16;2.30;;;1.57;;
18789;SDS011;9523;42.650;23.386;2024-03-17T03:57:44;3.57;;;1.37;;
18789;SDS011;9523;42.650;23.386;2024-03-17T04:00:13;2.93;;;2.73;;
18789;SDS011;9523;42.650;23.386;2024-03-17T04:02:40;4.00;;;3.20;;
18789;SDS011;9523;42.650;23.386;2024-03-17T04:05:08;3.93;;;1.80;;
18789;SDS011;9523;42.650;23.386;2024-03-17T04:07:37;2.27;;;1.57;;
18789;SDS011;9523;42.650;23.386;2024-03-17T04:10:05;1.37;;;1.30;;
18789;SDS011;9523;42.650;23.386;2024-03-17T04:12:33;0.70;;;0.57;;
18789;SDS011;9523;42.650;23.386;2024-03-17T04:15:00;0.87;;;0.83;;
18789;SDS011;9523;42.650;23.386;2024-03-17T04:17:27;2.53;;;2.27;;
18789;SDS011;9523;42.650;23.386;2024-03-17T04:19:54;1.63;;;1.37;;
18789;SDS011;9523;42.650;23.386;2024-03-17T04:22:22;2.77;;;2.53;;
18789;SDS011;9523;42.650;23.386;2024-03-17T04:24:51;2.33;;;1.70;;
18789;SDS011;9523;42.650;23.386;2024-03-17T04:27:19;2.20;;;1.40;;
18789;SDS011;9523;42.650;23.386;2024-03-17T04:29:46;0.77;;;0.77;;
18789;SDS011;9523;42.650;23.386;2024-03-17T04:32:14;1.53;;;1.37;;
18789;SDS011;9523;42.650;23.386;2024-03-17T04:34:41;1.97;;;1.83;;
18789;SDS011;9523;42.650;23.386;2024-03-17T04:37:09;4.43;;;2.50;;
18789;SDS011;9523;42.650;23.386;2024-03-17T04:39:38;2.93;;;1.40;;
18789;SDS011;9523;42.650;23.386;2024-03-17T04:42:06;1.10;;;1.00;;
18789;SDS011;9523;42.650;23.386;2024-03-17T04:44:33;1.60;;;1.47;;
18789;SDS011;9523;42.650;23.386;2024-03-17T04:47:01;8.47;;;1.97;;
18789;SDS011;9523;42.650;23.386;2024-03-17T04:49:32;1.93;;;1.83;;
18789;SDS011;9523;42.650;23.386;2024-03-17T04:51:59;1.00;;;0.80;;
18789;SDS011;9523;42.650;23.386;2024-03-17T04:54:26;1.33;;;1.33;;
18789;SDS011;9523;42.650;23.386;2024-03-17T04:56:53;3.80;;;1.90;;
18789;SDS011;9523;42.650;23.386;2024-03-17T04:59:21;2.50;;;1.73;;
18789;SDS011;9523;42.650;23.386;2024-03-17T05:01:48;1.43;;;1.33;;
18789;SDS011;9523;42.650;23.386;2024-03-17T05:04:15;1.80;;;1.70;;
18789;SDS011;9523;42.650;23.386;2024-03-17T05:06:42;1.77;;;1.67;;
18789;SDS011;9523;42.650;23.386;2024-03-17T05:09:11;2.90;;;2.60;;
18789;SDS011;9523;42.650;23.386;2024-03-17T05:11:39;0.63;;;0.63;;
18789;SDS011;9523;42.650;23.386;2024-03-17T05:14:08;1.60;;;1.50;;
18789;SDS011;9523;42.650;23.386;2024-03-17T05:16:37;2.53;;;1.67;;
18789;SDS011;9523;42.650;23.386;2024-03-17T05:19:04;0.87;;;0.83;;
18789;SDS011;9523;42.650;23.386;2024-03-17T05:21:31;2.07;;;0.60;;
18789;SDS011;9523;42.650;23.386;2024-03-17T05:24:00;2.30;;;1.00;;
18789;SDS011;9523;42.650;23.386;2024-03-17T05:26:28;1.37;;;1.30;;
18789;SDS011;9523;42.650;23.386;2024-03-17T05:28:55;1.53;;;1.43;;
18789;SDS011;9523;42.650;23.386;2024-03-17T05:31:22;3.93;;;1.43;;
18789;SDS011;9523;42.650;23.386;2024-03-17T05:33:51;2.10;;;1.73;;
18789;SDS011;9523;42.650;23.386;2024-03-17T05:36:18;2.87;;;2.60;;
18789;SDS011;9523;42.650;23.386;2024-03-17T05:38:46;1.37;;;1.17;;
18789;SDS011;9523;42.650;23.386;2024-03-17T05:41:14;2.37;;;1.37;;
18789;SDS011;9523;42.650;23.386;2024-03-17T05:43:41;1.07;;;1.07;;
18789;SDS011;9523;42.650;23.386;2024-03-17T05:46:08;0.63;;;0.63;;
18789;SDS011;9523;42.650;23.386;2024-03-17T05:48:36;1.67;;;1.17;;
18789;SDS011;9523;42.650;23.386;2024-03-17T05:51:06;3.00;;;1.23;;
18789;SDS011;9523;42.650;23.386;2024-03-17T05:53:35;2.03;;;1.40;;
18789;SDS011;9523;42.650;23.386;2024-03-17T05:56:02;1.23;;;1.13;;
18789;SDS011;9523;42.650;23.386;2024-03-17T05:58:30;2.17;;;1.83;;
18789;SDS011;9523;42.650;23.386;2024-03-17T06:00:57;1.73;;;1.37;;
18789;SDS011;9523;42.650;23.386;2024-03-17T06:03:24;1.17;;;1.07;;
18789;SDS011;9523;42.650;23.386;2024-03-17T06:05:51;3.20;;;2.60;;
18789;SDS011;9523;42.650;23.386;2024-03-17T06:08:20;2.67;;;2.47;;
18789;SDS011;9523;42.650;23.386;2024-03-17T06:10:48;3.90;;;2.73;;
18789;SDS011;9523;42.650;23.386;2024-03-17T06:13:15;5.60;;;3.33;;
18789;SDS011;9523;42.650;23.386;2024-03-17T06:15:43;6.90;;;4.07;;
18789;SDS011;9523;42.650;23.386;2024-03-17T06:18:12;3.03;;;2.60;;
18789;SDS011;9523;42.650;23.386;2024-03-17T06:20:42;2.17;;;1.80;;
18789;SDS011;9523;42.650;23.386;2024-03-17T06:23:10;4.07;;;2.67;;
18789;SDS011;9523;42.650;23.386;2024-03-17T06:25:40;2.07;;;1.73;;
18789;SDS011;9523;42.650;23.386;2024-03-17T06:28:07;2.67;;;2.47;;
18789;SDS011;9523;42.650;23.386;2024-03-17T06:30:41;3.63;;;1.60;;
18789;SDS011;9523;42.650;23.386;2024-03-17T06:33:10;3.17;;;2.57;;
18789;SDS011;9523;42.650;23.386;2024-03-17T06:35:41;3.60;;;2.60;;
18789;SDS011;9523;42.650;23.386;2024-03-17T06:38:08;3.37;;;2.77;;
18789;SDS011;9523;42.650;23.386;2024-03-17T06:40:36;6.10;;;2.90;;
18789;SDS011;9523;42.650;23.386;2024-03-17T06:43:05;4.17;;;2.70;;
18789;SDS011;9523;42.650;23.386;2024-03-17T06:45:33;2.63;;;1.57;;
18789;SDS011;9523;42.650;23.386;2024-03-17T06:48:00;1.07;;;1.03;;
18789;SDS011;9523;42.650;23.386;2024-03-17T06:50:27;3.63;;;2.20;;
18789;SDS011;9523;42.650;23.386;2024-03-17T06:52:54;2.57;;;1.53;;
18789;SDS011;9523;42.650;23.386;2024-03-17T06:55:21;5.77;;;1.47;;
18789;SDS011;9523;42.650;23.386;2024-03-17T06:57:49;2.63;;;2.10;;
18789;SDS011;9523;42.650;23.386;2024-03-17T07:00:18;2.27;;;1.63;;
18789;SDS011;9523;42.650;23.386;2024-03-17T07:02:50;4.17;;;2.37;;
18789;SDS011;9523;42.650;23.386;2024-03-17T07:05:17;8.70;;;4.40;;
18789;SDS011;9523;42.650;23.386;2024-03-17T07:07:44;2.67;;;1.93;;
18789;SDS011;9523;42.650;23.386;2024-03-17T07:10:11;7.27;;;3.63;;
18789;SDS011;9523;42.650;23.386;2024-03-17T07:12:40;2.90;;;1.97;;
18789;SDS011;9523;42.650;23.386;2024-03-17T07:15:09;4.00;;;2.67;;
18789;SDS011;9523;42.650;23.386;2024-03-17T07:17:37;5.33;;;3.53;;
18789;SDS011;9523;42.650;23.386;2024-03-17T07:20:05;5.13;;;2.97;;
18789;SDS011;9523;42.650;23.386;2024-03-17T07:22:34;6.60;;;3.90;;
18789;SDS011;9523;42.650;23.386;2024-03-17T07:25:01;4.07;;;3.23;;
18789;SDS011;9523;42.650;23.386;2024-03-17T07:27:28;5.63;;;3.17;;
18789;SDS011;9523;42.650;23.386;2024-03-17T07:29:56;3.07;;;2.47;;
18789;SDS011;9523;42.650;23.386;2024-03-17T07:32:23;3.33;;;3.03;;
18789;SDS011;9523;42.650;23.386;2024-03-17T07:34:52;7.27;;;3.17;;
18789;SDS011;9523;42.650;23.386;2024-03-17T07:37:19;5.27;;;2.93;;
18789;SDS011;9523;42.650;23.386;2024-03-17T07:39:46;5.83;;;3.17;;
18789;SDS011;9523;42.650;23.386;2024-03-17T07:42:15;7.80;;;3.23;;
18789;SDS011;9523;42.650;23.386;2024-03-17T07:44:43;8.03;;;3.70;;
18789;SDS011;9523;42.650;23.386;2024-03-17T07:47:11;8.27;;;3.30;;
18789;SDS011;9523;42.650;23.386;2024-03-17T07:49:38;3.60;;;2.57;;
18789;SDS011;9523;42.650;23.386;2024-03-17T07:52:06;4.87;;;3.03;;
18789;SDS011;9523;42.650;23.386;2024-03-17T07:54:33;7.00;;;3.23;;
18789;SDS011;9523;42.650;23.386;2024-03-17T07:57:02;5.77;;;3.37;;
18789;SDS011;9523;42.650;23.386;2024-03-17T07:59:29;4.73;;;3.77;;
18789;SDS011;9523;42.650;23.386;2024-03-17T08:01:56;6.23;;;3.37;;
18789;SDS011;9523;42.650;23.386;2024-03-17T08:04:23;4.23;;;2.37;;
18789;SDS011;9523;42.650;23.386;2024-03-17T08:06:50;5.27;;;3.77;;
18789;SDS011;9523;42.650;23.386;2024-03-17T08:09:19;8.50;;;3.20;;
18789;SDS011;9523;42.650;23.386;2024-03-17T08:11:47;6.57;;;3.63;;
18789;SDS011;9523;42.650;23.386;2024-03-17T08:14:15;2.97;;;2.50;;
18789;SDS011;9523;42.650;23.386;2024-03-17T08:16:42;6.23;;;3.87;;
18789;SDS011;9523;42.650;23.386;2024-03-17T08:19:09;6.23;;;3.93;;
18789;SDS011;9523;42.650;23.386;2024-03-17T08:21:36;7.33;;;4.13;;
18789;SDS011;9523;42.650;23.386;2024-03-17T08:24:03;4.63;;;2.57;;
18789;SDS011;9523;42.650;23.386;2024-03-17T08:26:32;2.63;;;2.23;;
18789;SDS011;9523;42.650;23.386;2024-03-17T08:28:59;6.10;;;3.10;;
18789;SDS011;9523;42.650;23.386;2024-03-17T08:31:26;4.03;;;2.90;;
18789;SDS011;9523;42.650;23.386;2024-03-17T08:33:53;3.70;;;2.43;;
18789;SDS011;9523;42.650;23.386;2024-03-17T08:36:20;3.47;;;2.33;;
18789;SDS011;9523;42.650;23.386;2024-03-17T08:38:48;5.10;;;2.07;;
18789;SDS011;9523;42.650;23.386;2024-03-17T08:41:15;5.60;;;2.77;;
18789;SDS011;9523;42.650;23.386;2024-03-17T08:43:44;3.80;;;2.23;;
18789;SDS011;9523;42.650;23.386;2024-03-17T08:46:12;5.03;;;2.77;;
18789;SDS011;9523;42.650;23.386;2024-03-17T08:48:40;3.50;;;2.10;;
18789;SDS011;9523;42.650;23.386;2024-03-17T08:51:08;5.03;;;2.87;;
18789;SDS011;9523;42.650;23.386;2024-03-17T08:53:37;2.53;;;1.93;;
18789;SDS011;9523;42.650;23.386;2024-03-17T08:56:07;4.63;;;3.33;;
18789;SDS011;9523;42.650;23.386;2024-03-17T08:58:34;3.37;;;2.50;;
18789;SDS011;9523;42.650;23.386;2024-03-17T09:01:07;3.47;;;2.10;;
18789;SDS011;9523;42.650;23.386;2024-03-17T09:03:34;4.53;;;2.83;;
18789;SDS011;9523;42.650;23.386;2024-03-17T09:06:02;4.40;;;3.23;;
18789;SDS011;9523;42.650;23.386;2024-03-17T09:08:29;7.33;;;2.17;;
18789;SDS011;9523;42.650;23.386;2024-03-17T09:10:58;6.53;;;3.63;;
18789;SDS011;9523;42.650;23.386;2024-03-17T09:13:25;5.07;;;2.03;;
18789;SDS011;9523;42.650;23.386;2024-03-17T09:15:52;3.83;;;2.77;;
18789;SDS011;9523;42.650;23.386;2024-03-17T09:18:23;4.53;;;2.63;;
18789;SDS011;9523;42.650;23.386;2024-03-17T09:20:57;3.97;;;2.47;;
18789;SDS011;9523;42.650;23.386;2024-03-17T09:23:26;7.30;;;2.83;;
18789;SDS011;9523;42.650;23.386;2024-03-17T09:25:55;5.27;;;2.20;;
18789;SDS011;9523;42.650;23.386;2024-03-17T09:28:23;5.23;;;2.67;;
18789;SDS011;9523;42.650;23.386;2024-03-17T09:30:50;5.30;;;2.47;;
18789;SDS011;9523;42.650;23.386;2024-03-17T09:33:18;3.67;;;2.07;;
18789;SDS011;9523;42.650;23.386;2024-03-17T09:35:53;3.73;;;2.63;;
18789;SDS011;9523;42.650;23.386;2024-03-17T09:38:21;4.10;;;2.50;;
18789;SDS011;9523;42.650;23.386;2024-03-17T09:40:48;2.03;;;1.70;;
18789;SDS011;9523;42.650;23.386;2024-03-17T09:43:18;3.63;;;2.20;;
18789;SDS011;9523;42.650;23.386;2024-03-17T09:45:45;3.73;;;2.17;;
18789;SDS011;9523;42.650;23.386;2024-03-17T09:48:14;4.33;;;2.37;;
18789;SDS011;9523;42.650;23.386;2024-03-17T09:50:44;3.13;;;2.07;;
18789;SDS011;9523;42.650;23.386;2024-03-17T09:53:23;2.43;;;1.87;;
18789;SDS011;9523;42.650;23.386;2024-03-17T09:55:52;3.77;;;2.10;;
18789;SDS011;9523;42.650;23.386;2024-03-17T09:58:22;4.13;;;2.17;;
18789;SDS011;9523;42.650;23.386;2024-03-17T10:00:49;4.93;;;1.70;;
18789;SDS011;9523;42.650;23.386;2024-03-17T10:06:20;2.10;;;1.30;;
18789;SDS011;9523;42.650;23.386;2024-03-17T10:08:50;2.63;;;1.30;;
18789;SDS011;9523;42.650;23.386;2024-03-17T10:11:18;4.90;;;1.87;;
18789;SDS011;9523;42.650;23.386;2024-03-17T10:13:46;3.17;;;1.97;;
18789;SDS011;9523;42.650;23.386;2024-03-17T10:16:25;2.00;;;1.57;;
18789;SDS011;9523;42.650;23.386;2024-03-17T10:19:05;2.07;;;1.47;;
18789;SDS011;9523;42.650;23.386;2024-03-17T10:21:35;1.80;;;1.60;;
18789;SDS011;9523;42.650;23.386;2024-03-17T10:24:08;0.77;;;0.77;;
18789;SDS011;9523;42.650;23.386;2024-03-17T10:26:42;2.20;;;1.73;;
18789;SDS011;9523;42.650;23.386;2024-03-17T10:29:21;1.83;;;0.93;;
18789;SDS011;9523;42.650;23.386;2024-03-17T10:31:51;2.90;;;1.10;;
18789;SDS011;9523;42.650;23.386;2024-03-17T10:34:19;1.65;;;1.15;;
18789;SDS011;9523;42.650;23.386;2024-03-17T10:36:49;2.00;;;1.23;;
18789;SDS011;9523;42.650;23.386;2024-03-17T10:39:25;3.47;;;2.17;;
18789;SDS011;9523;42.650;23.386;2024-03-17T10:41:56;4.03;;;1.63;;
18789;SDS011;9523;42.650;23.386;2024-03-17T10:44:25;2.77;;;1.70;;
18789;SDS011;9523;42.650;23.386;2024-03-17T10:46:54;1.33;;;1.13;;
18789;SDS011;9523;42.650;23.386;2024-03-17T10:49:23;2.33;;;1.20;;
18789;SDS011;9523;42.650;23.386;2024-03-17T10:51:53;2.30;;;1.23;;
18789;SDS011;9523;42.650;23.386;2024-03-17T10:54:26;3.67;;;2.23;;
18789;SDS011;9523;42.650;23.386;2024-03-17T10:56:54;2.43;;;1.57;;
18789;SDS011;9523;42.650;23.386;2024-03-17T10:59:26;2.60;;;1.70;;
18789;SDS011;9523;42.650;23.386;2024-03-17T11:02:02;2.03;;;1.43;;
18789;SDS011;9523;42.650;23.386;2024-03-17T11:04:31;2.77;;;1.17;;
18789;SDS011;9523;42.650;23.386;2024-03-17T11:07:00;1.60;;;1.10;;
18789;SDS011;9523;42.650;23.386;2024-03-17T11:09:29;3.40;;;2.00;;
18789;SDS011;9523;42.650;23.386;2024-03-17T11:11:56;3.20;;;1.30;;
18789;SDS011;9523;42.650;23.386;2024-03-17T11:14:25;4.33;;;1.77;;
18789;SDS011;9523;42.650;23.386;2024-03-17T11:16:52;4.07;;;1.40;;
18789;SDS011;9523;42.650;23.386;2024-03-17T11:19:18;1.80;;;1.10;;
18789;SDS011;9523;42.650;23.386;2024-03-17T11:21:46;3.93;;;1.53;;
18789;SDS011;9523;42.650;23.386;2024-03-17T11:24:20;1.93;;;1.27;;
18789;SDS011;9523;42.650;23.386;2024-03-17T11:26:48;2.67;;;1.17;;
18789;SDS011;9523;42.650;23.386;2024-03-17T11:29:28;3.93;;;1.27;;
18789;SDS011;9523;42.650;23.386;2024-03-17T11:31:57;2.13;;;1.20;;
18789;SDS011;9523;42.650;23.386;2024-03-17T11:34:28;3.43;;;1.40;;
18789;SDS011;9523;42.650;23.386;2024-03-17T11:36:56;1.87;;;1.00;;
18789;SDS011;9523;42.650;23.386;2024-03-17T11:42:13;2.00;;;1.47;;
18789;SDS011;9523;42.650;23.386;2024-03-17T11:44:42;3.13;;;1.43;;
18789;SDS011;9523;42.650;23.386;2024-03-17T11:47:08;2.80;;;1.40;;
18789;SDS011;9523;42.650;23.386;2024-03-17T11:49:36;7.27;;;2.17;;
18789;SDS011;9523;42.650;23.386;2024-03-17T11:52:04;2.40;;;1.60;;
18789;SDS011;9523;42.650;23.386;2024-03-17T11:54:36;2.80;;;1.40;;
18789;SDS011;9523;42.650;23.386;2024-03-17T11:57:05;2.77;;;1.10;;
18789;SDS011;9523;42.650;23.386;2024-03-17T11:59:33;2.03;;;1.57;;
18789;SDS011;9523;42.650;23.386;2024-03-17T12:02:00;2.67;;;1.10;;
18789;SDS011;9523;42.650;23.386;2024-03-17T12:04:27;2.60;;;1.40;;
18789;SDS011;9523;42.650;23.386;2024-03-17T12:06:55;1.50;;;1.23;;
18789;SDS011;9523;42.650;23.386;2024-03-17T12:09:23;1.47;;;1.00;;
18789;SDS011;9523;42.650;23.386;2024-03-17T12:11:58;1.30;;;0.90;;
18789;SDS011;9523;42.650;23.386;2024-03-17T12:14:27;2.83;;;1.40;;
18789;SDS011;9523;42.650;23.386;2024-03-17T12:16:55;2.57;;;1.30;;
18789;SDS011;9523;42.650;23.386;2024-03-17T12:19:24;2.70;;;1.20;;
18789;SDS011;9523;42.650;23.386;2024-03-17T12:21:51;2.73;;;1.50;;
18789;SDS011;9523;42.650;23.386;2024-03-17T12:24:19;2.93;;;1.23;;
18789;SDS011;9523;42.650;23.386;2024-03-17T12:26:47;1.43;;;0.80;;
18789;SDS011;9523;42.650;23.386;2024-03-17T12:29:26;2.43;;;1.33;;
18789;SDS011;9523;42.650;23.386;2024-03-17T12:31:57;2.40;;;1.13;;
18789;SDS011;9523;42.650;23.386;2024-03-17T12:34:26;0.98;;;0.93;;
18789;SDS011;9523;42.650;23.386;2024-03-17T12:36:53;1.83;;;1.63;;
18789;SDS011;9523;42.650;23.386;2024-03-17T12:39:21;5.93;;;2.70;;
18789;SDS011;9523;42.650;23.386;2024-03-17T12:42:01;2.27;;;1.53;;
18789;SDS011;9523;42.650;23.386;2024-03-17T12:44:29;2.80;;;1.20;;
18789;SDS011;9523;42.650;23.386;2024-03-17T12:46:58;1.33;;;0.90;;
18789;SDS011;9523;42.650;23.386;2024-03-17T12:49:28;1.45;;;1.00;;
18789;SDS011;9523;42.650;23.386;2024-03-17T12:51:54;1.55;;;0.80;;
18789;SDS011;9523;42.650;23.386;2024-03-17T12:54:24;1.63;;;1.40;;
18789;SDS011;9523;42.650;23.386;2024-03-17T12:56:51;2.42;;;1.85;;
18789;SDS011;9523;42.650;23.386;2024-03-17T12:59:47;1.15;;;0.98;;
18789;SDS011;9523;42.650;23.386;2024-03-17T13:02:33;3.38;;;1.65;;
18789;SDS011;9523;42.650;23.386;2024-03-17T13:07:51;3.53;;;1.77;;
18789;SDS011;9523;42.650;23.386;2024-03-17T13:10:21;2.55;;;1.52;;
18789;SDS011;9523;42.650;23.386;2024-03-17T13:12:57;2.30;;;1.40;;
18789;SDS011;9523;42.650;23.386;2024-03-17T13:15:26;2.50;;;1.70;;
18789;SDS011;9523;42.650;23.386;2024-03-17T13:17:57;2.67;;;1.70;;
18789;SDS011;9523;42.650;23.386;2024-03-17T13:20:24;2.20;;;1.80;;
18789;SDS011;9523;42.650;23.386;2024-03-17T13:22:53;1.77;;;1.20;;
18789;SDS011;9523;42.650;23.386;2024-03-17T13:25:20;4.57;;;2.10;;
18789;SDS011;9523;42.650;23.386;2024-03-17T13:27:51;2.67;;;1.97;;
18789;SDS011;9523;42.650;23.386;2024-03-17T13:30:19;3.03;;;2.20;;
18789;SDS011;9523;42.650;23.386;2024-03-17T13:32:47;3.20;;;2.00;;
18789;SDS011;9523;42.650;23.386;2024-03-17T13:35:22;4.83;;;2.20;;
18789;SDS011;9523;42.650;23.386;2024-03-17T13:37:50;1.83;;;1.50;;
18789;SDS011;9523;42.650;23.386;2024-03-17T13:40:19;1.83;;;1.30;;
18789;SDS011;9523;42.650;23.386;2024-03-17T13:42:48;1.93;;;1.50;;
18789;SDS011;9523;42.650;23.386;2024-03-17T13:45:17;2.57;;;1.90;;
18789;SDS011;9523;42.650;23.386;2024-03-17T13:47:46;2.33;;;1.90;;
18789;SDS011;9523;42.650;23.386;2024-03-17T13:50:15;1.80;;;1.33;;
18789;SDS011;9523;42.650;23.386;2024-03-17T13:52:45;3.07;;;1.87;;
18789;SDS011;9523;42.650;23.386;2024-03-17T13:55:13;4.10;;;2.23;;
18789;SDS011;9523;42.650;23.386;2024-03-17T13:57:42;4.47;;;1.87;;
18789;SDS011;9523;42.650;23.386;2024-03-17T14:00:10;1.87;;;1.50;;
18789;SDS011;9523;42.650;23.386;2024-03-17T14:02:41;2.33;;;1.43;;
18789;SDS011;9523;42.650;23.386;2024-03-17T14:05:09;3.13;;;1.80;;
18789;SDS011;9523;42.650;23.386;2024-03-17T14:07:39;2.33;;;1.63;;
18789;SDS011;9523;42.650;23.386;2024-03-17T14:10:08;3.97;;;2.03;;
18789;SDS011;9523;42.650;23.386;2024-03-17T14:12:36;3.73;;;1.60;;
18789;SDS011;9523;42.650;23.386;2024-03-17T14:15:04;2.30;;;2.10;;
18789;SDS011;9523;42.650;23.386;2024-03-17T14:17:35;3.60;;;1.60;;
18789;SDS011;9523;42.650;23.386;2024-03-17T14:20:03;2.57;;;1.23;;
18789;SDS011;9523;42.650;23.386;2024-03-17T14:22:31;6.77;;;2.77;;
18789;SDS011;9523;42.650;23.386;2024-03-17T14:24:58;6.27;;;1.53;;
18789;SDS011;9523;42.650;23.386;2024-03-17T14:27:27;3.10;;;1.57;;
18789;SDS011;9523;42.650;23.386;2024-03-17T14:29:54;2.03;;;1.47;;
18789;SDS011;9523;42.650;23.386;2024-03-17T14:32:21;3.13;;;1.40;;
18789;SDS011;9523;42.650;23.386;2024-03-17T14:34:48;2.77;;;1.40;;
18789;SDS011;9523;42.650;23.386;2024-03-17T14:37:15;2.37;;;1.50;;
18789;SDS011;9523;42.650;23.386;2024-03-17T14:39:42;2.27;;;1.67;;
18789;SDS011;9523;42.650;23.386;2024-03-17T14:42:10;3.17;;;1.90;;
18789;SDS011;9523;42.650;23.386;2024-03-17T14:44:38;4.13;;;1.50;;
18789;SDS011;9523;42.650;23.386;2024-03-17T14:47:05;2.63;;;1.80;;
18789;SDS011;9523;42.650;23.386;2024-03-17T14:49:33;3.87;;;2.43;;
18789;SDS011;9523;42.650;23.386;2024-03-17T14:52:00;3.40;;;2.07;;
18789;SDS011;9523;42.650;23.386;2024-03-17T14:54:27;2.37;;;1.33;;
18789;SDS011;9523;42.650;23.386;2024-03-17T14:56:55;2.20;;;2.00;;
18789;SDS011;9523;42.650;23.386;2024-03-17T14:59:22;3.10;;;1.97;;